Soaring Guidance
Issued by NWS Reno, NV

Home | Current Version | Previous Version | Text Only | Print | Product List | Glossary On
Versions: 1 2 3 4 5 6 7 8 9 10 11 12 13 14
000
UXUS97 KREV 041346
SRGREV

SOARING FORECAST
NATIONAL WEATHER SERVICE - RENO NV
700 AM PDT MON MAY 4 2015

THIS SOARING FORECAST IS FOR THE EASTERN SIERRA AND WESTERN NEVADA
WITH SPECIFIC INDICES FOR THE GREATER RENO AREA.

THIS FORECAST IS NOT UPDATED.

FOR CURRENT FLIGHT CONDITIONS...FORECASTS...AND ADVISORIES...ACCESS
YOUR LOCAL BRIEFING OUTLET OR FLIGHT SERVICE STATION.

*******************************************************************
LOCAL INDICES FOR RENO:                   TODAY     YESTERDAY
MAXIMUM TEMPERATURE AT RENO...(DEG F)...     80
TRIGGER TEMPERATURE...........(DEG F)...     62          64
   EXCEEDED YESTERDAY BY 17Z
MAXIMUM ALTITUDE..............(FT MSL)..  18000       18000
SOARING INDEX.................(FPM).....   1140        1083
FORECASTED K-INDEX.........VALID 18Z....     19          17
FORECASTED K-INDEX.........VALID 00Z....     27          20
FORECASTED LIFTED INDEX....VALID 18Z....      2           4
FORECASTED LIFTED INDEX....VALID 00Z....      0           1

AFTERNOON WINDS ALOFT FORECAST
MSL (FT) WIND/TEMP
9000  2812/+09
10000 2811/+06
12000 2909/+00
14000 2708/-05
16000 2606/-11
18000 9903/-17
24000 2007/-28
30000 1815/-46
34000 1914/-55
39000 2112/-58

SLIDE MOUNTAIN DATA:
 SLD HR 1250 M 38/18/2607/M  /SLIDE MTN UNOFFICIAL OBSERVATION

RENO TAF FORECAST:
KRNO 041120Z 0412/0512 VRB04KT P6SM SCT250
     FM042200 28014G23KT P6SM SCT120
     FM050400 31011KT P6SM FEW120
     FM050700 VRB04KT P6SM SCT200

CARSON CITY TAF FORECAST:
KCXP 041120Z 0412/0512 VRB04KT P6SM SCT250
     FM042200 26012G19KT P6SM SCT120
     FM050300 27005KT P6SM FEW120
     FM050600 VRB04KT P6SM SCT200

OUTLOOK FOR THE RENO-CARSON CITY-MINDEN AREA:
.TUESDAY...PARTLY CLOUDY. HIGHS 73 TO 78. LIGHT WINDS BECOMING
WEST 10 TO 15 MPH IN THE AFTERNOON.

SUNRISE AND SUNSET
MAY  4 2015...........SUNRISE   557 AM PDT   SUNSET   756 PM PDT
MAY  5 2015...........SUNRISE   556 AM PDT   SUNSET   757 PM PDT



THIS PRODUCT IS ROUTINELY PREPARED BY 700 AM AND IS
DISTRIBUTED TO THE RENO FLIGHT SERVICE STATION AS WELL AS THE
NATIONAL WEATHER SERVICE WORLD WIDE WEB HOMEPAGE AT:
       HTTP://WWW.WEATHER.GOV/RENO





USA.gov is the U.S. government's official web portal to all federal, state and local government web resources and services.